createdAt,value
2023-05-06T00:03:42.730Z,13.30
2023-05-06T00:08:45.218Z,13.34
2023-05-06T00:13:46.804Z,13.39
2023-05-06T00:18:48.356Z,13.39
2023-05-06T00:23:49.893Z,13.36
2023-05-06T00:28:51.452Z,13.25
2023-05-06T00:33:53.098Z,13.27
2023-05-06T00:38:54.685Z,13.26
2023-05-06T00:43:56.219Z,13.28
2023-05-06T00:48:57.899Z,13.27
2023-05-06T00:54:00.836Z,13.26
2023-05-06T00:59:02.387Z,13.18
2023-05-06T01:04:04.152Z,13.12
2023-05-06T01:09:10.692Z,12.97
2023-05-06T01:14:20.770Z,12.70
2023-05-06T01:19:37.337Z,12.41
2023-05-06T01:24:43.526Z,12.22
2023-05-06T01:29:46.736Z,12.03
2023-05-06T01:35:20.310Z,11.91
2023-05-06T01:40:26.380Z,11.82
2023-05-06T01:45:30.514Z,11.73
2023-05-06T01:50:33.289Z,11.71
2023-05-06T01:55:35.800Z,11.67
2023-05-06T02:00:38.412Z,11.61
2023-05-06T02:05:40.047Z,11.48
2023-05-06T02:10:42.383Z,11.38
2023-05-06T02:15:44.611Z,11.37
2023-05-06T02:20:50.973Z,11.33
2023-05-06T02:25:53.041Z,11.27
2023-05-06T02:30:57.803Z,11.19
2023-05-06T02:35:59.429Z,11.08
2023-05-06T02:41:01.063Z,11.00
2023-05-06T02:46:02.736Z,10.82
2023-05-06T02:51:05.379Z,10.68
2023-05-06T02:56:07.505Z,10.52
2023-05-06T03:01:09.341Z,10.43
2023-05-06T03:06:11.091Z,10.33
2023-05-06T03:11:12.935Z,10.32
2023-05-06T03:16:14.837Z,10.31
2023-05-06T03:21:20.330Z,10.20
2023-05-06T03:26:24.297Z,10.11
2023-05-06T03:31:26.772Z,10.08
2023-05-06T03:36:29.525Z,10.00
2023-05-06T03:41:31.521Z,9.89
2023-05-06T03:46:33.949Z,9.82
2023-05-06T03:51:36.130Z,9.71
2023-05-06T03:56:37.864Z,9.68
2023-05-06T04:01:39.875Z,9.61
2023-05-06T04:06:41.568Z,9.59
2023-05-06T04:11:43.454Z,9.55
2023-05-06T04:16:48.369Z,9.52
2023-05-06T04:21:49.989Z,9.52
2023-05-06T04:26:53.561Z,9.49
2023-05-06T04:31:55.386Z,9.56
2023-05-06T04:36:58.692Z,9.75
2023-05-06T04:42:23.472Z,9.91
2023-05-06T04:47:36.062Z,10.09
2023-05-06T04:52:44.277Z,10.43
2023-05-06T04:57:46.756Z,10.73
2023-05-06T05:02:48.431Z,11.03
2023-05-06T05:07:52.025Z,11.30
2023-05-06T05:12:54.060Z,11.56
2023-05-06T05:17:56.565Z,11.84
2023-05-06T05:22:58.421Z,12.18
2023-05-06T05:28:00.142Z,12.42
2023-05-06T05:33:03.987Z,12.75
2023-05-06T05:38:05.966Z,12.82
2023-05-06T05:43:07.631Z,12.99
2023-05-06T05:48:13.092Z,13.21
2023-05-06T05:53:15.197Z,13.50
2023-05-06T05:58:17.018Z,13.76
2023-05-06T06:03:19.616Z,14.00
2023-05-06T06:08:21.519Z,14.12
2023-05-06T06:13:28.782Z,14.35
2023-05-06T06:18:30.945Z,14.65
2023-05-06T06:23:32.607Z,15.03
2023-05-06T06:28:34.382Z,15.34
2023-05-06T06:33:36.130Z,15.77
2023-05-06T06:38:37.704Z,16.03
2023-05-06T06:43:39.304Z,16.50
2023-05-06T06:48:51.100Z,16.84
2023-05-06T06:53:52.755Z,17.23
2023-05-06T06:58:54.508Z,17.74
2023-05-06T07:03:56.115Z,18.16
2023-05-06T07:08:57.720Z,18.40
2023-05-06T07:13:59.390Z,18.66
2023-05-06T07:19:01.538Z,18.81
2023-05-06T07:24:03.380Z,18.92
2023-05-06T07:29:04.939Z,19.21
2023-05-06T07:34:07.758Z,19.59
2023-05-06T07:39:10.816Z,20.03
2023-05-06T07:44:12.571Z,20.80
2023-05-06T07:49:14.180Z,21.22
2023-05-06T07:54:15.833Z,21.37
2023-05-06T07:59:17.468Z,20.78
2023-05-06T08:04:19.187Z,20.22
2023-05-06T08:09:22.941Z,20.06
2023-05-06T08:14:28.197Z,19.88
2023-05-06T08:19:29.976Z,19.83
2023-05-06T08:24:31.708Z,19.51
2023-05-06T08:29:33.272Z,19.80
2023-05-06T08:34:35.041Z,20.12
2023-05-06T08:39:36.603Z,20.33
2023-05-06T08:44:38.286Z,20.68
2023-05-06T08:49:39.956Z,21.04
2023-05-06T08:54:42.659Z,21.48
2023-05-06T08:59:45.720Z,21.62
2023-05-06T09:04:48.143Z,21.77
2023-05-06T09:09:49.886Z,21.61
2023-05-06T09:14:52.178Z,21.84
2023-05-06T09:19:56.993Z,21.98
2023-05-06T09:24:58.977Z,22.12
2023-05-06T09:30:01.940Z,22.24
2023-05-06T09:35:04.024Z,22.41
2023-05-06T09:40:06.375Z,22.63
2023-05-06T09:45:08.694Z,22.25
2023-05-06T09:50:10.735Z,22.31
2023-05-06T09:55:13.125Z,22.79
2023-05-06T10:00:16.945Z,22.93
2023-05-06T10:05:18.753Z,22.97
2023-05-06T10:10:24.111Z,22.64
2023-05-06T10:15:27.181Z,21.99
2023-05-06T10:20:31.390Z,22.15
2023-05-06T10:25:38.615Z,22.28
2023-05-06T10:30:41.201Z,22.15
2023-05-06T10:35:57.307Z,21.75
2023-05-06T10:40:59.783Z,21.54
2023-05-06T10:46:02.576Z,21.00
2023-05-06T10:51:19.955Z,20.64
2023-05-06T10:56:21.728Z,20.57
2023-05-06T11:01:27.351Z,20.53
2023-05-06T11:06:37.236Z,20.61
2023-05-06T11:12:03.300Z,20.66
2023-05-06T11:17:09.864Z,20.55
2023-05-06T11:22:41.039Z,20.68
2023-05-06T11:27:42.657Z,20.89
2023-05-06T11:32:46.761Z,20.88
2023-05-06T11:37:48.425Z,21.12
2023-05-06T11:42:50.112Z,21.07
2023-05-06T11:47:54.916Z,21.01
2023-05-06T11:52:56.581Z,20.85
2023-05-06T11:57:58.112Z,20.89
2023-05-06T12:02:59.749Z,20.96
2023-05-06T12:08:01.570Z,21.16
2023-05-06T12:13:09.417Z,21.32
2023-05-06T12:18:12.641Z,21.25
2023-05-06T12:23:15.795Z,21.14
2023-05-06T12:28:19.224Z,21.05
2023-05-06T12:33:21.407Z,21.14
2023-05-06T12:38:22.970Z,21.15
2023-05-06T12:43:31.334Z,21.05
2023-05-06T12:48:33.147Z,21.13
2023-05-06T12:53:35.588Z,21.31
2023-05-06T12:58:38.094Z,21.20
2023-05-06T13:03:41.001Z,21.34
2023-05-06T13:08:42.756Z,21.37
2023-05-06T13:13:44.365Z,21.51
2023-05-06T13:18:45.928Z,21.47
2023-05-06T13:23:47.942Z,21.41
2023-05-06T13:28:49.597Z,21.48
2023-05-06T13:33:51.298Z,21.88
2023-05-06T13:38:52.916Z,22.04
2023-05-06T13:43:54.487Z,22.02
2023-05-06T13:48:56.034Z,22.33
2023-05-06T13:53:57.608Z,22.33
2023-05-06T13:58:59.447Z,22.15
2023-05-06T14:04:01.016Z,22.35
2023-05-06T14:09:02.634Z,22.51
2023-05-06T14:14:05.288Z,22.47
2023-05-06T14:19:07.059Z,22.57
2023-05-06T14:24:10.144Z,22.40
2023-05-06T14:29:11.904Z,22.09
2023-05-06T14:34:13.519Z,21.97
2023-05-06T14:39:15.630Z,21.91
2023-05-06T14:44:17.135Z,22.04
2023-05-06T14:49:18.913Z,22.02
2023-05-06T14:54:20.619Z,22.01
2023-05-06T14:59:22.673Z,22.20
2023-05-06T15:04:24.363Z,22.29
2023-05-06T15:09:26.298Z,22.51
2023-05-06T15:14:27.842Z,22.88
2023-05-06T15:19:29.529Z,23.32
2023-05-06T15:24:31.230Z,23.02
2023-05-06T15:29:32.864Z,22.96
2023-05-06T15:34:34.558Z,23.03
2023-05-06T15:39:37.896Z,23.00
2023-05-06T15:44:39.544Z,23.06
2023-05-06T15:54:49.667Z,22.67
2023-05-06T15:59:51.896Z,22.50
2023-05-06T16:04:54.018Z,22.56
2023-05-06T16:09:55.741Z,22.63
2023-05-06T16:14:57.686Z,22.53
2023-05-06T16:19:59.383Z,22.51
2023-05-06T16:25:00.947Z,22.60
2023-05-06T16:30:02.512Z,22.38
2023-05-06T16:35:04.252Z,22.10
2023-05-06T16:40:08.223Z,21.80
2023-05-06T16:45:10.496Z,21.72
2023-05-06T16:50:12.670Z,21.77
2023-05-06T16:55:14.513Z,21.74
2023-05-06T17:00:16.709Z,21.72
2023-05-06T17:05:20.678Z,21.56
2023-05-06T17:10:24.746Z,21.34
2023-05-06T17:15:26.546Z,21.16
2023-05-06T17:20:28.152Z,20.88
2023-05-06T17:25:29.681Z,20.73
2023-05-06T17:30:31.232Z,20.62
2023-05-06T17:35:32.796Z,20.50
2023-05-06T17:40:34.507Z,20.34
2023-05-06T17:45:36.185Z,20.11
2023-05-06T17:50:37.718Z,19.93
2023-05-06T17:55:39.939Z,19.75
2023-05-06T18:00:41.637Z,19.57
2023-05-06T18:05:43.196Z,19.40
2023-05-06T18:10:44.727Z,19.21
2023-05-06T18:15:46.320Z,19.01
2023-05-06T18:20:47.844Z,18.85
2023-05-06T18:25:51.601Z,18.61
2023-05-06T18:30:53.134Z,18.35
2023-05-06T18:35:54.693Z,18.01
2023-05-06T18:40:56.418Z,17.72
2023-05-06T18:45:58.112Z,17.46
2023-05-06T18:51:09.584Z,17.13
2023-05-06T18:56:11.384Z,16.86
2023-05-06T19:01:12.978Z,16.57
2023-05-06T19:06:14.694Z,16.24
2023-05-06T19:11:18.143Z,16.00
2023-05-06T19:16:19.748Z,15.69
2023-05-06T19:21:21.855Z,15.49
2023-05-06T19:26:23.499Z,15.25
2023-05-06T19:31:25.016Z,15.07
2023-05-06T19:36:26.794Z,14.91
2023-05-06T19:41:28.384Z,14.81
2023-05-06T19:46:29.955Z,14.80
2023-05-06T19:51:31.614Z,14.79
2023-05-06T19:56:33.175Z,14.76
2023-05-06T20:01:34.849Z,14.75
2023-05-06T20:06:36.423Z,14.78
2023-05-06T20:11:38.025Z,14.82
2023-05-06T20:16:40.853Z,14.76
2023-05-06T20:21:42.439Z,14.79
2023-05-06T20:26:43.956Z,14.75
2023-05-06T20:31:46.952Z,14.66
2023-05-06T20:36:49.842Z,14.57
2023-05-06T20:41:51.469Z,14.50
2023-05-06T20:46:52.972Z,14.35
2023-05-06T20:51:54.638Z,14.33
2023-05-06T20:56:57.849Z,14.23
2023-05-06T21:01:59.538Z,14.18
2023-05-06T21:07:01.147Z,14.18
2023-05-06T21:12:02.723Z,14.04
2023-05-06T21:17:04.230Z,14.09
2023-05-06T21:22:09.906Z,14.03
2023-05-06T21:27:11.489Z,13.93
2023-05-06T21:32:13.110Z,13.89
2023-05-06T21:37:14.639Z,13.86
2023-05-06T21:42:16.196Z,13.81
2023-05-06T21:47:17.740Z,13.79
2023-05-06T21:52:19.250Z,13.75
2023-05-06T21:57:20.744Z,13.63
2023-05-06T22:02:22.328Z,13.58
2023-05-06T22:07:23.892Z,13.51
2023-05-06T22:12:25.504Z,13.42
2023-05-06T22:17:27.313Z,13.35
2023-05-06T22:22:29.022Z,13.29
2023-05-06T22:27:30.945Z,13.30
2023-05-06T22:32:32.573Z,13.19
2023-05-06T22:37:34.152Z,13.14
2023-05-06T22:42:35.763Z,13.21
2023-05-06T22:47:37.364Z,13.35
2023-05-06T22:52:38.951Z,13.22
2023-05-06T22:57:40.579Z,13.14
2023-05-06T23:02:42.227Z,12.99
2023-05-06T23:07:43.807Z,12.91
2023-05-06T23:12:45.426Z,12.82
2023-05-06T23:17:47.008Z,12.75
2023-05-06T23:22:48.617Z,12.72
2023-05-06T23:27:50.188Z,12.77
2023-05-06T23:32:51.819Z,12.77
2023-05-06T23:37:53.414Z,12.54
2023-05-06T23:42:54.964Z,12.37
2023-05-06T23:47:57.044Z,12.36
2023-05-06T23:52:58.666Z,12.32
2023-05-06T23:58:00.328Z,12.23
